sensor_id;sensor_type;location;lat;lon;timestamp;P1;durP1;ratioP1;P2;durP2;ratioP2
67762;SDS011;54566;52.022;5.582;2023-04-25T00:00:23;15.32;;;2.75;;
67762;SDS011;54566;52.022;5.582;2023-04-25T00:02:48;13.68;;;2.95;;
67762;SDS011;54566;52.022;5.582;2023-04-25T00:05:15;16.65;;;3.20;;
67762;SDS011;54566;52.022;5.582;2023-04-25T00:07:41;17.50;;;3.30;;
67762;SDS011;54566;52.022;5.582;2023-04-25T00:10:08;16.65;;;3.15;;
67762;SDS011;54566;52.022;5.582;2023-04-25T00:12:36;21.85;;;3.78;;
67762;SDS011;54566;52.022;5.582;2023-04-25T00:15:04;17.17;;;3.33;;
67762;SDS011;54566;52.022;5.582;2023-04-25T00:17:30;14.15;;;3.20;;
67762;SDS011;54566;52.022;5.582;2023-04-25T00:19:56;18.48;;;3.90;;
67762;SDS011;54566;52.022;5.582;2023-04-25T00:22:23;22.15;;;3.70;;
67762;SDS011;54566;52.022;5.582;2023-04-25T00:24:51;19.98;;;3.20;;
67762;SDS011;54566;52.022;5.582;2023-04-25T00:29:44;19.00;;;3.10;;
67762;SDS011;54566;52.022;5.582;2023-04-25T00:32:10;22.00;;;3.50;;
67762;SDS011;54566;52.022;5.582;2023-04-25T00:34:39;21.75;;;3.42;;
67762;SDS011;54566;52.022;5.582;2023-04-25T00:37:05;24.67;;;4.13;;
67762;SDS011;54566;52.022;5.582;2023-04-25T00:39:31;21.38;;;4.10;;
67762;SDS011;54566;52.022;5.582;2023-04-25T00:41:57;22.27;;;3.60;;
67762;SDS011;54566;52.022;5.582;2023-04-25T00:44:23;15.38;;;3.50;;
67762;SDS011;54566;52.022;5.582;2023-04-25T00:46:51;24.23;;;4.27;;
67762;SDS011;54566;52.022;5.582;2023-04-25T00:49:18;23.33;;;3.33;;
67762;SDS011;54566;52.022;5.582;2023-04-25T00:51:43;20.83;;;3.88;;
67762;SDS011;54566;52.022;5.582;2023-04-25T00:54:11;18.13;;;3.60;;
67762;SDS011;54566;52.022;5.582;2023-04-25T00:56:39;20.88;;;3.78;;
67762;SDS011;54566;52.022;5.582;2023-04-25T00:59:05;16.20;;;4.75;;
67762;SDS011;54566;52.022;5.582;2023-04-25T01:01:31;19.00;;;3.90;;
67762;SDS011;54566;52.022;5.582;2023-04-25T01:03:58;20.92;;;3.67;;
67762;SDS011;54566;52.022;5.582;2023-04-25T01:06:24;17.33;;;3.90;;
67762;SDS011;54566;52.022;5.582;2023-04-25T01:08:51;14.85;;;3.33;;
67762;SDS011;54566;52.022;5.582;2023-04-25T01:11:17;18.92;;;3.85;;
67762;SDS011;54566;52.022;5.582;2023-04-25T01:13:44;18.33;;;3.97;;
67762;SDS011;54566;52.022;5.582;2023-04-25T01:16:10;25.90;;;4.60;;
67762;SDS011;54566;52.022;5.582;2023-04-25T01:18:40;23.25;;;4.57;;
67762;SDS011;54566;52.022;5.582;2023-04-25T01:21:10;23.23;;;3.90;;
67762;SDS011;54566;52.022;5.582;2023-04-25T01:23:38;22.40;;;4.10;;
67762;SDS011;54566;52.022;5.582;2023-04-25T01:26:05;23.08;;;3.60;;
67762;SDS011;54566;52.022;5.582;2023-04-25T01:28:32;12.65;;;3.30;;
67762;SDS011;54566;52.022;5.582;2023-04-25T01:30:59;25.83;;;3.75;;
67762;SDS011;54566;52.022;5.582;2023-04-25T01:33:25;25.48;;;4.00;;
67762;SDS011;54566;52.022;5.582;2023-04-25T01:35:51;17.58;;;3.38;;
67762;SDS011;54566;52.022;5.582;2023-04-25T01:38:17;25.48;;;3.47;;
67762;SDS011;54566;52.022;5.582;2023-04-25T01:40:43;19.45;;;4.07;;
67762;SDS011;54566;52.022;5.582;2023-04-25T01:43:10;19.13;;;3.65;;
67762;SDS011;54566;52.022;5.582;2023-04-25T01:45:38;21.55;;;4.13;;
67762;SDS011;54566;52.022;5.582;2023-04-25T01:48:07;18.13;;;3.85;;
67762;SDS011;54566;52.022;5.582;2023-04-25T01:50:33;18.63;;;4.13;;
67762;SDS011;54566;52.022;5.582;2023-04-25T01:53:00;23.50;;;4.22;;
67762;SDS011;54566;52.022;5.582;2023-04-25T01:55:27;18.63;;;3.75;;
67762;SDS011;54566;52.022;5.582;2023-04-25T01:57:53;12.45;;;3.58;;
67762;SDS011;54566;52.022;5.582;2023-04-25T02:00:19;27.42;;;4.45;;
67762;SDS011;54566;52.022;5.582;2023-04-25T02:02:45;23.08;;;4.90;;
67762;SDS011;54566;52.022;5.582;2023-04-25T02:05:11;18.35;;;4.28;;
67762;SDS011;54566;52.022;5.582;2023-04-25T02:07:37;23.10;;;3.90;;
67762;SDS011;54566;52.022;5.582;2023-04-25T02:10:04;15.55;;;3.45;;
67762;SDS011;54566;52.022;5.582;2023-04-25T02:12:30;21.15;;;3.72;;
67762;SDS011;54566;52.022;5.582;2023-04-25T02:14:56;22.83;;;3.88;;
67762;SDS011;54566;52.022;5.582;2023-04-25T02:17:23;19.42;;;3.72;;
67762;SDS011;54566;52.022;5.582;2023-04-25T02:19:49;27.17;;;4.05;;
67762;SDS011;54566;52.022;5.582;2023-04-25T02:22:15;18.42;;;3.38;;
67762;SDS011;54566;52.022;5.582;2023-04-25T02:24:41;21.65;;;3.60;;
67762;SDS011;54566;52.022;5.582;2023-04-25T02:27:07;17.65;;;3.63;;
67762;SDS011;54566;52.022;5.582;2023-04-25T02:29:33;27.45;;;4.07;;
67762;SDS011;54566;52.022;5.582;2023-04-25T02:31:59;20.77;;;4.15;;
67762;SDS011;54566;52.022;5.582;2023-04-25T02:34:25;17.75;;;3.40;;
67762;SDS011;54566;52.022;5.582;2023-04-25T02:36:52;21.73;;;3.50;;
67762;SDS011;54566;52.022;5.582;2023-04-25T02:39:19;19.00;;;3.05;;
67762;SDS011;54566;52.022;5.582;2023-04-25T02:41:47;25.98;;;4.35;;
67762;SDS011;54566;52.022;5.582;2023-04-25T02:44:13;21.13;;;3.45;;
67762;SDS011;54566;52.022;5.582;2023-04-25T02:46:39;12.63;;;2.97;;
67762;SDS011;54566;52.022;5.582;2023-04-25T02:49:05;17.83;;;2.95;;
67762;SDS011;54566;52.022;5.582;2023-04-25T02:51:31;15.23;;;3.28;;
67762;SDS011;54566;52.022;5.582;2023-04-25T02:53:57;18.20;;;2.97;;
67762;SDS011;54566;52.022;5.582;2023-04-25T02:56:26;16.83;;;3.30;;
67762;SDS011;54566;52.022;5.582;2023-04-25T02:58:54;15.95;;;3.42;;
67762;SDS011;54566;52.022;5.582;2023-04-25T03:01:20;14.25;;;2.92;;
67762;SDS011;54566;52.022;5.582;2023-04-25T03:03:46;18.30;;;3.38;;
67762;SDS011;54566;52.022;5.582;2023-04-25T03:06:12;20.60;;;3.45;;
67762;SDS011;54566;52.022;5.582;2023-04-25T03:08:39;24.55;;;3.35;;
67762;SDS011;54566;52.022;5.582;2023-04-25T03:11:05;22.10;;;3.85;;
67762;SDS011;54566;52.022;5.582;2023-04-25T03:13:31;20.02;;;3.03;;
67762;SDS011;54566;52.022;5.582;2023-04-25T03:15:58;16.45;;;2.70;;
67762;SDS011;54566;52.022;5.582;2023-04-25T03:18:25;20.92;;;3.30;;
67762;SDS011;54566;52.022;5.582;2023-04-25T03:20:51;16.75;;;3.00;;
67762;SDS011;54566;52.022;5.582;2023-04-25T03:23:17;16.98;;;2.97;;
67762;SDS011;54566;52.022;5.582;2023-04-25T03:25:43;14.00;;;3.15;;
67762;SDS011;54566;52.022;5.582;2023-04-25T03:28:09;23.35;;;4.35;;
67762;SDS011;54566;52.022;5.582;2023-04-25T03:30:35;17.02;;;3.40;;
67762;SDS011;54566;52.022;5.582;2023-04-25T03:33:01;17.02;;;3.20;;
67762;SDS011;54566;52.022;5.582;2023-04-25T03:35:27;25.45;;;3.80;;
67762;SDS011;54566;52.022;5.582;2023-04-25T03:37:53;25.10;;;4.13;;
67762;SDS011;54566;52.022;5.582;2023-04-25T03:40:19;14.52;;;3.25;;
67762;SDS011;54566;52.022;5.582;2023-04-25T03:42:45;24.95;;;4.85;;
67762;SDS011;54566;52.022;5.582;2023-04-25T03:45:11;16.27;;;3.53;;
67762;SDS011;54566;52.022;5.582;2023-04-25T03:47:37;25.75;;;3.90;;
67762;SDS011;54566;52.022;5.582;2023-04-25T03:50:03;23.48;;;3.63;;
67762;SDS011;54566;52.022;5.582;2023-04-25T03:52:29;16.63;;;3.65;;
67762;SDS011;54566;52.022;5.582;2023-04-25T03:54:55;16.17;;;3.95;;
67762;SDS011;54566;52.022;5.582;2023-04-25T03:57:21;8.82;;;2.92;;
67762;SDS011;54566;52.022;5.582;2023-04-25T03:59:47;16.67;;;3.70;;
67762;SDS011;54566;52.022;5.582;2023-04-25T04:02:13;15.73;;;3.70;;
67762;SDS011;54566;52.022;5.582;2023-04-25T04:04:39;28.73;;;3.75;;
67762;SDS011;54566;52.022;5.582;2023-04-25T04:07:05;12.07;;;3.17;;
67762;SDS011;54566;52.022;5.582;2023-04-25T04:09:31;13.27;;;3.40;;
67762;SDS011;54566;52.022;5.582;2023-04-25T04:11:57;15.35;;;3.00;;
67762;SDS011;54566;52.022;5.582;2023-04-25T04:14:23;15.23;;;3.22;;
67762;SDS011;54566;52.022;5.582;2023-04-25T04:16:50;23.63;;;3.58;;
67762;SDS011;54566;52.022;5.582;2023-04-25T04:19:17;16.17;;;3.25;;
67762;SDS011;54566;52.022;5.582;2023-04-25T04:21:43;19.35;;;4.28;;
67762;SDS011;54566;52.022;5.582;2023-04-25T04:24:09;16.38;;;3.85;;
67762;SDS011;54566;52.022;5.582;2023-04-25T04:26:35;17.48;;;4.20;;
67762;SDS011;54566;52.022;5.582;2023-04-25T04:29:02;21.08;;;4.18;;
67762;SDS011;54566;52.022;5.582;2023-04-25T04:31:28;18.42;;;3.40;;
67762;SDS011;54566;52.022;5.582;2023-04-25T04:33:55;23.85;;;3.50;;
67762;SDS011;54566;52.022;5.582;2023-04-25T04:36:25;23.95;;;3.05;;
67762;SDS011;54566;52.022;5.582;2023-04-25T04:38:52;17.63;;;3.38;;
67762;SDS011;54566;52.022;5.582;2023-04-25T04:41:18;23.25;;;3.17;;
67762;SDS011;54566;52.022;5.582;2023-04-25T04:43:45;18.20;;;3.33;;
67762;SDS011;54566;52.022;5.582;2023-04-25T04:46:11;17.73;;;3.42;;
67762;SDS011;54566;52.022;5.582;2023-04-25T04:48:38;21.95;;;3.80;;
67762;SDS011;54566;52.022;5.582;2023-04-25T04:51:05;14.57;;;3.15;;
67762;SDS011;54566;52.022;5.582;2023-04-25T04:53:31;21.90;;;3.65;;
67762;SDS011;54566;52.022;5.582;2023-04-25T04:55:57;25.98;;;3.30;;
67762;SDS011;54566;52.022;5.582;2023-04-25T04:58:23;17.58;;;3.08;;
67762;SDS011;54566;52.022;5.582;2023-04-25T05:00:52;11.02;;;2.75;;
67762;SDS011;54566;52.022;5.582;2023-04-25T05:03:18;17.65;;;3.58;;
67762;SDS011;54566;52.022;5.582;2023-04-25T05:05:44;20.83;;;3.22;;
67762;SDS011;54566;52.022;5.582;2023-04-25T05:08:10;18.35;;;3.40;;
67762;SDS011;54566;52.022;5.582;2023-04-25T05:10:37;22.23;;;3.78;;
67762;SDS011;54566;52.022;5.582;2023-04-25T05:13:03;23.23;;;3.72;;
67762;SDS011;54566;52.022;5.582;2023-04-25T05:15:29;20.35;;;3.13;;
67762;SDS011;54566;52.022;5.582;2023-04-25T05:17:55;14.18;;;2.55;;
67762;SDS011;54566;52.022;5.582;2023-04-25T05:20:22;11.93;;;2.85;;
67762;SDS011;54566;52.022;5.582;2023-04-25T05:22:48;15.88;;;2.60;;
67762;SDS011;54566;52.022;5.582;2023-04-25T05:25:14;21.83;;;2.97;;
67762;SDS011;54566;52.022;5.582;2023-04-25T05:27:40;11.23;;;2.72;;
67762;SDS011;54566;52.022;5.582;2023-04-25T05:30:06;12.35;;;2.35;;
67762;SDS011;54566;52.022;5.582;2023-04-25T05:32:33;21.02;;;2.72;;
67762;SDS011;54566;52.022;5.582;2023-04-25T05:35:01;14.27;;;2.60;;
67762;SDS011;54566;52.022;5.582;2023-04-25T05:37:27;20.23;;;2.72;;
67762;SDS011;54566;52.022;5.582;2023-04-25T05:39:56;9.38;;;2.10;;
67762;SDS011;54566;52.022;5.582;2023-04-25T05:42:22;13.77;;;2.30;;
67762;SDS011;54566;52.022;5.582;2023-04-25T05:44:48;17.85;;;2.90;;
67762;SDS011;54566;52.022;5.582;2023-04-25T05:47:14;14.07;;;2.40;;
67762;SDS011;54566;52.022;5.582;2023-04-25T05:49:40;15.75;;;2.40;;
67762;SDS011;54566;52.022;5.582;2023-04-25T05:52:06;16.63;;;2.40;;
67762;SDS011;54566;52.022;5.582;2023-04-25T05:57:35;11.82;;;2.65;;
67762;SDS011;54566;52.022;5.582;2023-04-25T06:00:02;11.38;;;2.30;;
67762;SDS011;54566;52.022;5.582;2023-04-25T06:02:33;10.25;;;2.35;;
67762;SDS011;54566;52.022;5.582;2023-04-25T06:05:01;10.50;;;2.67;;
67762;SDS011;54566;52.022;5.582;2023-04-25T06:07:31;12.85;;;2.50;;
67762;SDS011;54566;52.022;5.582;2023-04-25T06:10:04;10.18;;;2.17;;
67762;SDS011;54566;52.022;5.582;2023-04-25T06:12:34;11.65;;;2.45;;
67762;SDS011;54566;52.022;5.582;2023-04-25T06:15:09;8.88;;;2.25;;
67762;SDS011;54566;52.022;5.582;2023-04-25T06:17:45;16.25;;;2.63;;
67762;SDS011;54566;52.022;5.582;2023-04-25T06:20:24;12.20;;;2.15;;
67762;SDS011;54566;52.022;5.582;2023-04-25T06:22:54;6.72;;;1.88;;
67762;SDS011;54566;52.022;5.582;2023-04-25T06:25:20;18.17;;;2.40;;
67762;SDS011;54566;52.022;5.582;2023-04-25T06:27:46;12.13;;;2.42;;
67762;SDS011;54566;52.022;5.582;2023-04-25T06:30:12;10.63;;;2.90;;
67762;SDS011;54566;52.022;5.582;2023-04-25T06:32:40;13.82;;;3.17;;
67762;SDS011;54566;52.022;5.582;2023-04-25T06:35:06;10.75;;;2.42;;
67762;SDS011;54566;52.022;5.582;2023-04-25T06:37:32;13.32;;;2.30;;
67762;SDS011;54566;52.022;5.582;2023-04-25T06:39:58;13.70;;;2.35;;
67762;SDS011;54566;52.022;5.582;2023-04-25T06:42:24;16.77;;;3.13;;
67762;SDS011;54566;52.022;5.582;2023-04-25T06:44:50;15.15;;;2.50;;
67762;SDS011;54566;52.022;5.582;2023-04-25T06:47:16;11.23;;;2.30;;
67762;SDS011;54566;52.022;5.582;2023-04-25T06:49:42;10.48;;;2.25;;
67762;SDS011;54566;52.022;5.582;2023-04-25T06:52:08;11.30;;;2.38;;
67762;SDS011;54566;52.022;5.582;2023-04-25T06:54:35;16.95;;;2.58;;
67762;SDS011;54566;52.022;5.582;2023-04-25T06:57:01;12.00;;;2.00;;
67762;SDS011;54566;52.022;5.582;2023-04-25T06:59:29;13.35;;;2.75;;
67762;SDS011;54566;52.022;5.582;2023-04-25T07:01:58;12.45;;;2.45;;
67762;SDS011;54566;52.022;5.582;2023-04-25T07:04:26;14.55;;;2.50;;
67762;SDS011;54566;52.022;5.582;2023-04-25T07:06:52;10.65;;;2.20;;
67762;SDS011;54566;52.022;5.582;2023-04-25T07:09:19;16.85;;;2.42;;
67762;SDS011;54566;52.022;5.582;2023-04-25T07:11:45;13.60;;;2.97;;
67762;SDS011;54566;52.022;5.582;2023-04-25T07:14:15;11.52;;;2.28;;
67762;SDS011;54566;52.022;5.582;2023-04-25T07:16:41;13.90;;;2.55;;
67762;SDS011;54566;52.022;5.582;2023-04-25T07:19:09;14.55;;;2.65;;
67762;SDS011;54566;52.022;5.582;2023-04-25T07:21:43;21.90;;;2.67;;
67762;SDS011;54566;52.022;5.582;2023-04-25T07:24:21;12.00;;;2.05;;
67762;SDS011;54566;52.022;5.582;2023-04-25T07:26:57;16.15;;;2.60;;
67762;SDS011;54566;52.022;5.582;2023-04-25T07:29:31;12.13;;;3.58;;
67762;SDS011;54566;52.022;5.582;2023-04-25T07:32:05;17.88;;;3.45;;
67762;SDS011;54566;52.022;5.582;2023-04-25T07:34:45;19.42;;;2.40;;
67762;SDS011;54566;52.022;5.582;2023-04-25T07:37:15;15.82;;;2.55;;
67762;SDS011;54566;52.022;5.582;2023-04-25T07:39:43;12.05;;;2.20;;
67762;SDS011;54566;52.022;5.582;2023-04-25T07:45:15;10.52;;;2.58;;
67762;SDS011;54566;52.022;5.582;2023-04-25T07:47:44;14.27;;;2.40;;
67762;SDS011;54566;52.022;5.582;2023-04-25T07:52:53;11.23;;;1.92;;
67762;SDS011;54566;52.022;5.582;2023-04-25T07:55:20;15.68;;;1.92;;
67762;SDS011;54566;52.022;5.582;2023-04-25T07:57:48;12.73;;;2.60;;
67762;SDS011;54566;52.022;5.582;2023-04-25T08:00:22;9.73;;;1.77;;
67762;SDS011;54566;52.022;5.582;2023-04-25T08:02:48;15.18;;;2.17;;
67762;SDS011;54566;52.022;5.582;2023-04-25T08:05:16;11.38;;;2.00;;
67762;SDS011;54566;52.022;5.582;2023-04-25T08:08:03;16.42;;;2.00;;
67762;SDS011;54566;52.022;5.582;2023-04-25T08:10:31;16.88;;;2.13;;
67762;SDS011;54566;52.022;5.582;2023-04-25T08:12:57;11.32;;;1.73;;
67762;SDS011;54566;52.022;5.582;2023-04-25T08:15:23;8.18;;;2.00;;
67762;SDS011;54566;52.022;5.582;2023-04-25T08:17:50;7.60;;;1.75;;
67762;SDS011;54566;52.022;5.582;2023-04-25T08:20:18;8.57;;;1.70;;
67762;SDS011;54566;52.022;5.582;2023-04-25T08:22:47;8.98;;;1.98;;
67762;SDS011;54566;52.022;5.582;2023-04-25T08:25:15;17.52;;;2.08;;
67762;SDS011;54566;52.022;5.582;2023-04-25T08:27:44;10.27;;;1.58;;
67762;SDS011;54566;52.022;5.582;2023-04-25T08:30:10;7.47;;;1.70;;
67762;SDS011;54566;52.022;5.582;2023-04-25T08:32:40;14.63;;;2.03;;
67762;SDS011;54566;52.022;5.582;2023-04-25T08:35:06;9.82;;;1.58;;
67762;SDS011;54566;52.022;5.582;2023-04-25T08:37:35;11.77;;;1.52;;
67762;SDS011;54566;52.022;5.582;2023-04-25T08:40:01;12.38;;;1.92;;
67762;SDS011;54566;52.022;5.582;2023-04-25T08:42:32;11.40;;;1.40;;
67762;SDS011;54566;52.022;5.582;2023-04-25T08:45:06;10.00;;;1.42;;
67762;SDS011;54566;52.022;5.582;2023-04-25T08:47:33;9.30;;;1.40;;
67762;SDS011;54566;52.022;5.582;2023-04-25T08:50:04;6.25;;;1.67;;
67762;SDS011;54566;52.022;5.582;2023-04-25T08:52:39;8.45;;;1.70;;
67762;SDS011;54566;52.022;5.582;2023-04-25T08:55:14;9.32;;;1.45;;
67762;SDS011;54566;52.022;5.582;2023-04-25T08:57:43;8.63;;;1.52;;
67762;SDS011;54566;52.022;5.582;2023-04-25T09:00:10;6.53;;;1.10;;
67762;SDS011;54566;52.022;5.582;2023-04-25T09:02:39;7.90;;;1.50;;
67762;SDS011;54566;52.022;5.582;2023-04-25T09:05:05;9.55;;;1.50;;
67762;SDS011;54566;52.022;5.582;2023-04-25T09:07:32;6.28;;;1.20;;
67762;SDS011;54566;52.022;5.582;2023-04-25T09:12:37;10.82;;;1.50;;
67762;SDS011;54566;52.022;5.582;2023-04-25T09:15:10;9.40;;;1.30;;
67762;SDS011;54566;52.022;5.582;2023-04-25T09:17:36;9.88;;;1.40;;
67762;SDS011;54566;52.022;5.582;2023-04-25T09:20:06;9.18;;;1.30;;
67762;SDS011;54566;52.022;5.582;2023-04-25T09:22:33;5.88;;;1.30;;
67762;SDS011;54566;52.022;5.582;2023-04-25T09:25:01;9.00;;;1.20;;
67762;SDS011;54566;52.022;5.582;2023-04-25T09:29:58;7.82;;;1.30;;
67762;SDS011;54566;52.022;5.582;2023-04-25T09:32:28;8.60;;;1.50;;
67762;SDS011;54566;52.022;5.582;2023-04-25T09:34:54;10.23;;;1.45;;
67762;SDS011;54566;52.022;5.582;2023-04-25T09:37:28;8.90;;;1.67;;
67762;SDS011;54566;52.022;5.582;2023-04-25T09:39:55;7.45;;;1.27;;
67762;SDS011;54566;52.022;5.582;2023-04-25T09:42:24;9.80;;;1.70;;
67762;SDS011;54566;52.022;5.582;2023-04-25T09:44:51;10.20;;;1.48;;
67762;SDS011;54566;52.022;5.582;2023-04-25T09:47:20;4.60;;;1.35;;
67762;SDS011;54566;52.022;5.582;2023-04-25T09:49:49;12.63;;;1.60;;
67762;SDS011;54566;52.022;5.582;2023-04-25T09:52:19;9.32;;;1.35;;
67762;SDS011;54566;52.022;5.582;2023-04-25T09:54:45;6.32;;;1.40;;
67762;SDS011;54566;52.022;5.582;2023-04-25T09:57:21;5.20;;;1.27;;
67762;SDS011;54566;52.022;5.582;2023-04-25T09:59:54;6.70;;;1.40;;
67762;SDS011;54566;52.022;5.582;2023-04-25T12:41:22;7.32;;;1.60;;
67762;SDS011;54566;52.022;5.582;2023-04-25T12:43:48;8.52;;;1.33;;
67762;SDS011;54566;52.022;5.582;2023-04-25T12:46:14;9.70;;;1.63;;
67762;SDS011;54566;52.022;5.582;2023-04-25T12:48:40;8.02;;;1.33;;
67762;SDS011;54566;52.022;5.582;2023-04-25T12:51:06;5.80;;;1.42;;
67762;SDS011;54566;52.022;5.582;2023-04-25T12:53:32;5.50;;;1.17;;
67762;SDS011;54566;52.022;5.582;2023-04-25T12:55:58;3.35;;;1.00;;
67762;SDS011;54566;52.022;5.582;2023-04-25T12:58:24;7.43;;;1.55;;
67762;SDS011;54566;52.022;5.582;2023-04-25T13:00:50;7.45;;;1.40;;
67762;SDS011;54566;52.022;5.582;2023-04-25T13:03:16;6.75;;;1.23;;
67762;SDS011;54566;52.022;5.582;2023-04-25T13:05:42;6.28;;;1.45;;
67762;SDS011;54566;52.022;5.582;2023-04-25T13:08:08;8.85;;;1.45;;
67762;SDS011;54566;52.022;5.582;2023-04-25T13:10:35;7.43;;;1.30;;
67762;SDS011;54566;52.022;5.582;2023-04-25T13:13:03;5.78;;;1.40;;
67762;SDS011;54566;52.022;5.582;2023-04-25T13:15:29;7.70;;;1.40;;
67762;SDS011;54566;52.022;5.582;2023-04-25T13:20:31;6.05;;;1.30;;
67762;SDS011;54566;52.022;5.582;2023-04-25T13:22:57;6.25;;;1.55;;
67762;SDS011;54566;52.022;5.582;2023-04-25T13:25:23;7.45;;;1.40;;
67762;SDS011;54566;52.022;5.582;2023-04-25T13:27:49;10.52;;;1.70;;
67762;SDS011;54566;52.022;5.582;2023-04-25T13:30:16;7.38;;;1.50;;
67762;SDS011;54566;52.022;5.582;2023-04-25T13:32:42;7.68;;;1.90;;
67762;SDS011;54566;52.022;5.582;2023-04-25T13:35:09;5.05;;;1.30;;
67762;SDS011;54566;52.022;5.582;2023-04-25T13:37:36;9.52;;;2.42;;
67762;SDS011;54566;52.022;5.582;2023-04-25T13:40:02;2.83;;;1.00;;
67762;SDS011;54566;52.022;5.582;2023-04-25T13:42:30;14.27;;;1.67;;
67762;SDS011;54566;52.022;5.582;2023-04-25T13:44:56;3.53;;;0.95;;
67762;SDS011;54566;52.022;5.582;2023-04-25T13:47:27;6.78;;;1.02;;
67762;SDS011;54566;52.022;5.582;2023-04-25T13:49:53;8.50;;;1.10;;
67762;SDS011;54566;52.022;5.582;2023-04-25T13:52:19;8.60;;;1.48;;
67762;SDS011;54566;52.022;5.582;2023-04-25T13:55:01;7.97;;;1.48;;
67762;SDS011;54566;52.022;5.582;2023-04-25T14:00:33;8.20;;;1.42;;
67762;SDS011;54566;52.022;5.582;2023-04-25T14:02:59;12.60;;;1.33;;
67762;SDS011;54566;52.022;5.582;2023-04-25T14:05:25;8.50;;;1.77;;
67762;SDS011;54566;52.022;5.582;2023-04-25T14:07:51;8.68;;;1.52;;
67762;SDS011;54566;52.022;5.582;2023-04-25T14:10:17;8.15;;;1.30;;
67762;SDS011;54566;52.022;5.582;2023-04-25T14:12:43;5.40;;;1.30;;
67762;SDS011;54566;52.022;5.582;2023-04-25T14:15:09;6.35;;;1.30;;
67762;SDS011;54566;52.022;5.582;2023-04-25T14:36:59;8.15;;;1.20;;
67762;SDS011;54566;52.022;5.582;2023-04-25T14:39:25;5.00;;;1.23;;
67762;SDS011;54566;52.022;5.582;2023-04-25T14:41:51;9.70;;;1.45;;
67762;SDS011;54566;52.022;5.582;2023-04-25T14:44:17;6.18;;;1.40;;
67762;SDS011;54566;52.022;5.582;2023-04-25T14:46:43;8.95;;;1.70;;
67762;SDS011;54566;52.022;5.582;2023-04-25T14:49:09;11.48;;;1.95;;
67762;SDS011;54566;52.022;5.582;2023-04-25T14:51:35;6.63;;;1.45;;
67762;SDS011;54566;52.022;5.582;2023-04-25T14:54:01;10.18;;;1.33;;
67762;SDS011;54566;52.022;5.582;2023-04-25T14:56:28;6.30;;;1.60;;
67762;SDS011;54566;52.022;5.582;2023-04-25T14:58:54;8.55;;;1.70;;
67762;SDS011;54566;52.022;5.582;2023-04-25T15:01:21;6.63;;;1.55;;
67762;SDS011;54566;52.022;5.582;2023-04-25T15:03:47;4.97;;;1.48;;
67762;SDS011;54566;52.022;5.582;2023-04-25T15:06:32;10.00;;;1.42;;
67762;SDS011;54566;52.022;5.582;2023-04-25T15:08:59;7.00;;;1.40;;
67762;SDS011;54566;52.022;5.582;2023-04-25T15:11:25;6.63;;;1.48;;
67762;SDS011;54566;52.022;5.582;2023-04-25T15:13:51;7.35;;;1.45;;
67762;SDS011;54566;52.022;5.582;2023-04-25T16:41:50;7.65;;;1.52;;
67762;SDS011;54566;52.022;5.582;2023-04-25T16:44:16;7.68;;;1.60;;
67762;SDS011;54566;52.022;5.582;2023-04-25T16:46:42;11.63;;;1.45;;
67762;SDS011;54566;52.022;5.582;2023-04-25T16:49:08;8.95;;;1.92;;
67762;SDS011;54566;52.022;5.582;2023-04-25T16:51:35;10.13;;;1.52;;
67762;SDS011;54566;52.022;5.582;2023-04-25T16:54:01;7.70;;;1.75;;
67762;SDS011;54566;52.022;5.582;2023-04-25T16:56:27;12.48;;;1.85;;
67762;SDS011;54566;52.022;5.582;2023-04-25T16:58:53;10.50;;;1.27;;
67762;SDS011;54566;52.022;5.582;2023-04-25T17:01:19;6.75;;;1.60;;
67762;SDS011;54566;52.022;5.582;2023-04-25T17:03:46;9.98;;;2.03;;
67762;SDS011;54566;52.022;5.582;2023-04-25T17:06:12;10.75;;;2.00;;
67762;SDS011;54566;52.022;5.582;2023-04-25T17:08:39;10.23;;;1.45;;
67762;SDS011;54566;52.022;5.582;2023-04-25T17:11:05;5.40;;;2.03;;
67762;SDS011;54566;52.022;5.582;2023-04-25T17:13:32;9.57;;;1.70;;
67762;SDS011;54566;52.022;5.582;2023-04-25T17:41:54;8.27;;;1.10;;
67762;SDS011;54566;52.022;5.582;2023-04-25T17:44:21;10.43;;;1.60;;
67762;SDS011;54566;52.022;5.582;2023-04-25T17:46:47;15.13;;;1.90;;
67762;SDS011;54566;52.022;5.582;2023-04-25T17:49:13;8.57;;;1.48;;
67762;SDS011;54566;52.022;5.582;2023-04-25T17:51:39;13.32;;;1.70;;
67762;SDS011;54566;52.022;5.582;2023-04-25T17:54:05;7.78;;;1.63;;
67762;SDS011;54566;52.022;5.582;2023-04-25T17:56:35;7.72;;;1.60;;
67762;SDS011;54566;52.022;5.582;2023-04-25T17:59:02;3.85;;;1.45;;
67762;SDS011;54566;52.022;5.582;2023-04-25T18:01:28;13.10;;;2.20;;
67762;SDS011;54566;52.022;5.582;2023-04-25T18:03:54;5.32;;;1.70;;
67762;SDS011;54566;52.022;5.582;2023-04-25T18:06:21;12.05;;;1.90;;
67762;SDS011;54566;52.022;5.582;2023-04-25T18:08:47;7.72;;;1.45;;
67762;SDS011;54566;52.022;5.582;2023-04-25T18:11:13;9.68;;;1.40;;
67762;SDS011;54566;52.022;5.582;2023-04-25T18:13:39;10.85;;;1.45;;
67762;SDS011;54566;52.022;5.582;2023-04-25T18:18:41;11.98;;;1.95;;
67762;SDS011;54566;52.022;5.582;2023-04-25T18:21:10;13.25;;;1.77;;
67762;SDS011;54566;52.022;5.582;2023-04-25T18:23:36;9.05;;;1.95;;
67762;SDS011;54566;52.022;5.582;2023-04-25T18:26:02;17.60;;;1.70;;
67762;SDS011;54566;52.022;5.582;2023-04-25T18:28:28;19.30;;;1.88;;
67762;SDS011;54566;52.022;5.582;2023-04-25T18:30:54;7.90;;;1.33;;
67762;SDS011;54566;52.022;5.582;2023-04-25T18:33:20;15.73;;;2.10;;
67762;SDS011;54566;52.022;5.582;2023-04-25T18:35:47;9.30;;;1.60;;
67762;SDS011;54566;52.022;5.582;2023-04-25T18:38:15;9.38;;;1.70;;
67762;SDS011;54566;52.022;5.582;2023-04-25T18:40:42;6.03;;;1.70;;
67762;SDS011;54566;52.022;5.582;2023-04-25T18:43:08;9.38;;;1.70;;
67762;SDS011;54566;52.022;5.582;2023-04-25T18:45:34;10.07;;;1.95;;
67762;SDS011;54566;52.022;5.582;2023-04-25T18:48:00;9.13;;;2.00;;
67762;SDS011;54566;52.022;5.582;2023-04-25T18:50:26;8.98;;;2.00;;
67762;SDS011;54566;52.022;5.582;2023-04-25T18:52:52;12.00;;;2.42;;
67762;SDS011;54566;52.022;5.582;2023-04-25T18:55:18;6.80;;;2.08;;
67762;SDS011;54566;52.022;5.582;2023-04-25T18:57:45;11.35;;;2.42;;
67762;SDS011;54566;52.022;5.582;2023-04-25T19:00:11;9.45;;;2.10;;
67762;SDS011;54566;52.022;5.582;2023-04-25T19:02:37;17.08;;;2.75;;
67762;SDS011;54566;52.022;5.582;2023-04-25T19:05:03;13.20;;;2.30;;
67762;SDS011;54566;52.022;5.582;2023-04-25T19:07:29;10.32;;;2.58;;
67762;SDS011;54566;52.022;5.582;2023-04-25T19:09:56;10.38;;;2.45;;
67762;SDS011;54566;52.022;5.582;2023-04-25T19:12:22;10.82;;;2.30;;
67762;SDS011;54566;52.022;5.582;2023-04-25T19:14:48;12.43;;;2.50;;
67762;SDS011;54566;52.022;5.582;2023-04-25T19:22:39;10.18;;;2.25;;
67762;SDS011;54566;52.022;5.582;2023-04-25T19:25:05;12.45;;;2.58;;
67762;SDS011;54566;52.022;5.582;2023-04-25T19:27:31;8.95;;;2.70;;
67762;SDS011;54566;52.022;5.582;2023-04-25T19:29:57;12.68;;;3.17;;
67762;SDS011;54566;52.022;5.582;2023-04-25T19:32:31;16.30;;;2.78;;
67762;SDS011;54566;52.022;5.582;2023-04-25T19:34:57;9.40;;;2.40;;
67762;SDS011;54566;52.022;5.582;2023-04-25T19:37:23;14.65;;;3.25;;
67762;SDS011;54566;52.022;5.582;2023-04-25T19:39:49;8.98;;;2.58;;
67762;SDS011;54566;52.022;5.582;2023-04-25T19:42:15;11.38;;;3.22;;
67762;SDS011;54566;52.022;5.582;2023-04-25T19:44:43;20.33;;;3.17;;
67762;SDS011;54566;52.022;5.582;2023-04-25T19:47:09;10.98;;;2.95;;
67762;SDS011;54566;52.022;5.582;2023-04-25T19:49:36;10.50;;;2.60;;
67762;SDS011;54566;52.022;5.582;2023-04-25T19:52:02;10.80;;;2.95;;
67762;SDS011;54566;52.022;5.582;2023-04-25T19:54:31;11.40;;;3.00;;
67762;SDS011;54566;52.022;5.582;2023-04-25T19:56:57;10.15;;;2.60;;